Time;durP1;ratioP1;P1;durP2;ratioP2;P2;SDS_P1;SDS_P2;PMS_P1;PMS_P2;Temp;Humidity;BMP_temperature;BMP_pressure;BME280_temperature;BME280_humidity;BME280_pressure;Samples;Min_cycle;Max_cycle;Signal;HPM_P1;HPM_P2
2023/03/09 00:00:10;;;;;;;27.00;16.05;;;;;;;4.14;65.28;98463.41;685555;28;1307;-87
2023/03/09 00:00:32;;;;;;;26.20;16.00;;;;;;;4.14;65.19;98458.22;685430;28;1420;-87
2023/03/09 00:00:53;;;;;;;26.13;16.10;;;;;;;4.11;65.25;98454.75;688147;28;1083;-86
2023/03/09 00:01:21;;;;;;;26.13;16.13;;;;;;;4.13;65.05;98462.53;685382;28;1208;-87
2023/03/09 00:01:43;;;;;;;25.58;15.70;;;;;;;4.09;65.04;98450.41;680116;28;1375;-86
2023/03/09 00:02:04;;;;;;;24.92;14.88;;;;;;;4.09;65.12;98446.13;688079;28;1277;-87
2023/03/09 00:02:25;;;;;;;27.90;16.02;;;;;;;4.15;65.10;98459.97;685689;28;767;-87
2023/03/09 00:02:46;;;;;;;27.20;15.82;;;;;;;4.15;65.20;98454.81;682857;28;1292;-86
2023/03/09 00:03:15;;;;;;;25.60;15.75;;;;;;;4.14;65.09;98453.94;690791;28;1133;-87
2023/03/09 00:03:35;;;;;;;23.40;15.13;;;;;;;4.09;65.12;98446.13;685501;28;960;-87
2023/03/09 00:03:57;;;;;;;24.30;15.40;;;;;;;4.18;64.83;98454.88;685535;28;1146;-87
2023/03/09 00:04:18;;;;;;;26.50;16.15;;;;;;;4.17;65.24;98453.13;688308;28;1064;-87
2023/03/09 00:04:39;;;;;;;26.08;15.90;;;;;;;4.20;65.15;98463.50;682838;29;1191;-86
2023/03/09 00:04:59;;;;;;;25.75;15.50;;;;;;;4.13;64.95;98446.19;688138;28;1325;-87
2023/03/09 00:05:20;;;;;;;26.00;15.20;;;;;;;4.20;65.01;98453.19;691004;28;1091;-87
2023/03/09 00:05:53;;;;;;;26.67;15.40;;;;;;;4.20;64.83;98460.91;691001;28;1015;-86
2023/03/09 00:06:14;;;;;;;25.75;15.98;;;;;;;4.11;64.96;98443.59;682870;28;1068;-86
2023/03/09 00:06:34;;;;;;;25.50;16.15;;;;;;;4.15;65.03;98449.66;682669;28;1370;-87
2023/03/09 00:07:13;;;;;;;25.52;15.77;;;;;;;4.20;64.95;98458.34;685457;28;1052;-87
2023/03/09 00:07:34;;;;;;;24.27;14.98;;;;;;;4.19;65.08;98452.31;685570;28;1281;-87
2023/03/09 00:07:55;;;;;;;24.13;14.85;;;;;;;4.10;65.09;98449.56;690820;28;1220;-87
2023/03/09 00:08:16;;;;;;;24.40;14.88;;;;;;;4.15;64.86;98459.97;682854;28;1172;-87
2023/03/09 00:08:36;;;;;;;23.98;15.18;;;;;;;4.14;65.40;98453.94;688212;28;1213;-86
2023/03/09 00:08:58;;;;;;;23.15;14.82;;;;;;;4.18;65.20;98454.88;688107;28;1221;-87
2023/03/09 00:09:19;;;;;;;23.90;14.95;;;;;;;4.20;65.24;98458.34;682855;28;1229;-87
2023/03/09 00:09:39;;;;;;;25.58;15.38;;;;;;;4.16;65.07;98456.56;685478;28;1238;-87
2023/03/09 00:10:00;;;;;;;25.90;16.15;;;;;;;4.15;64.87;98455.69;690963;28;1198;-87
2023/03/09 00:10:21;;;;;;;26.40;16.20;;;;;;;4.13;65.01;98451.34;688182;28;1274;-87
2023/03/09 00:10:42;;;;;;;24.83;15.90;;;;;;;4.11;65.04;98459.94;691037;28;1262;-86
2023/03/09 00:11:06;;;;;;;25.48;15.80;;;;;;;4.13;64.96;98465.13;682627;28;1915;-87
2023/03/09 00:11:27;;;;;;;25.77;16.30;;;;;;;4.08;65.27;98459.88;688227;28;1514;-87
2023/03/09 00:11:49;;;;;;;25.13;15.45;;;;;;;4.08;65.10;98464.16;688239;28;1086;-87
2023/03/09 00:12:09;;;;;;;24.95;15.10;;;;;;;4.10;65.21;98467.63;688142;28;1467;-87
2023/03/09 00:12:30;;;;;;;24.63;14.93;;;;;;;4.05;65.27;98458.97;680302;29;1259;-87
2023/03/09 00:12:54;;;;;;;25.67;15.40;;;;;;;4.14;65.10;98465.97;687947;28;1280;-87
2023/03/09 00:13:18;;;;;;;24.00;14.95;;;;;;;4.09;65.39;98461.63;690948;28;1240;-87
2023/03/09 00:13:39;;;;;;;24.15;15.63;;;;;;;4.14;65.27;98466.84;688178;28;1092;-87
2023/03/09 00:14:00;;;;;;;24.40;15.50;;;;;;;4.13;65.32;98462.53;685416;28;1506;-87
2023/03/09 00:14:22;;;;;;;25.70;16.00;;;;;;;4.16;64.93;98472.06;688156;28;1103;-87
2023/03/09 00:14:42;;;;;;;26.15;15.88;;;;;;;4.15;65.19;98459.97;690909;28;1379;-87
2023/03/09 00:15:04;;;;;;;26.85;16.10;;;;;;;4.14;65.11;98465.97;685412;28;1266;-87
2023/03/09 00:15:24;;;;;;;25.60;16.00;;;;;;;4.18;65.20;98475.53;685572;28;883;-87
2023/03/09 00:15:49;;;;;;;24.90;15.20;;;;;;;4.13;65.08;98461.66;688199;28;1278;-87
2023/03/09 00:16:21;;;;;;;24.30;14.70;;;;;;;4.15;65.39;98467.72;682713;28;1323;-86
2023/03/09 00:16:42;;;;;;;23.40;14.75;;;;;;;4.18;65.01;98475.53;685413;28;1295;-86
2023/03/09 00:17:02;;;;;;;23.98;15.20;;;;;;;4.19;64.93;98466.94;685470;28;1007;-87
2023/03/09 00:17:23;;;;;;;24.13;14.80;;;;;;;4.27;64.97;98469.66;696425;28;1384;-87
2023/03/09 00:17:45;;;;;;;26.17;15.70;;;;;;;4.18;64.79;98460.03;693679;28;931;-86
2023/03/09 00:18:05;;;;;;;26.00;15.73;;;;;;;4.31;65.07;98466.28;685411;28;1403;-86
2023/03/09 00:18:26;;;;;;;25.85;15.85;;;;;;;4.24;64.53;98466.19;680217;28;1237;-87
2023/03/09 00:18:47;;;;;;;25.23;15.63;;;;;;;4.21;64.89;98465.25;680214;29;1069;-87
2023/03/09 00:19:08;;;;;;;26.08;15.50;;;;;;;4.19;64.97;98461.78;682743;28;1504;-87
2023/03/09 00:19:30;;;;;;;26.20;15.32;;;;;;;4.20;65.11;98466.09;685677;28;764;-87
2023/03/09 00:19:52;;;;;;;27.30;15.50;;;;;;;4.20;64.87;98466.09;682829;28;1256;-87
2023/03/09 00:20:19;;;;;;;27.20;15.77;;;;;;;4.21;64.78;98463.53;688201;28;1473;-87
2023/03/09 00:20:40;;;;;;;26.05;15.13;;;;;;;4.22;65.20;98467.00;688274;28;1099;-86
2023/03/09 00:21:02;;;;;;;24.65;14.95;;;;;;;4.19;64.74;98465.25;688248;28;1076;-87
2023/03/09 00:21:34;;;;;;;24.15;15.05;;;;;;;4.20;64.96;98471.25;685631;28;1273;-87
2023/03/09 00:21:56;;;;;;;26.05;15.80;;;;;;;4.22;65.05;98459.25;688164;28;980;-87
2023/03/09 00:22:17;;;;;;;26.73;15.70;;;;;;;4.23;65.12;98467.03;688257;28;1253;-87
2023/03/09 00:22:38;;;;;;;25.60;15.07;;;;;;;4.18;65.31;98465.19;685449;28;1148;-87
2023/03/09 00:23:08;;;;;;;24.30;14.63;;;;;;;4.22;64.96;98464.41;685389;28;1196;-86
2023/03/09 00:23:29;;;;;;;25.92;14.93;;;;;;;4.29;65.21;98468.84;688313;28;827;-86
2023/03/09 00:23:50;;;;;;;25.50;14.93;;;;;;;4.42;64.80;98457.00;685319;28;1032;-87
2023/03/09 00:24:16;;;;;;;25.75;15.07;;;;;;;4.29;64.67;98453.34;685529;28;1196;-87
2023/03/09 00:24:45;;;;;;;24.70;15.50;;;;;;;4.21;64.68;98457.50;685512;28;1268;-86
2023/03/09 00:25:06;;;;;;;25.13;14.82;;;;;;;4.22;65.16;98461.84;685437;28;1123;-87
2023/03/09 00:25:28;;;;;;;25.27;15.00;;;;;;;4.16;64.83;98456.56;682932;28;1297;-86
2023/03/09 00:25:49;;;;;;;25.73;15.25;;;;;;;4.24;64.80;98466.19;685062;28;1016;-86
2023/03/09 00:26:10;;;;;;;25.33;15.20;;;;;;;4.21;65.00;98465.25;687621;28;1307;-86
2023/03/09 00:26:34;;;;;;;25.98;15.50;;;;;;;4.20;65.09;98464.38;685511;28;1193;-86
2023/03/09 00:27:00;;;;;;;24.98;15.07;;;;;;;4.18;65.09;98460.88;679975;28;1291;-86
2023/03/09 00:27:20;;;;;;;25.65;15.50;;;;;;;4.19;65.09;98457.50;685539;28;1074;-87
2023/03/09 00:27:42;;;;;;;24.92;15.57;;;;;;;4.23;65.21;98461.03;682895;28;1216;-86
2023/03/09 00:28:03;;;;;;;26.08;15.85;;;;;;;4.29;65.03;98468.00;685317;28;1182;-86
2023/03/09 00:28:23;;;;;;;25.55;15.52;;;;;;;4.24;64.97;98458.44;682954;28;1169;-87
2023/03/09 00:28:44;;;;;;;25.23;15.10;;;;;;;4.24;65.14;98463.59;688210;28;1024;-86
2023/03/09 00:29:07;;;;;;;23.83;14.73;;;;;;;4.22;65.14;98469.59;685463;28;1142;-86
2023/03/09 00:29:30;;;;;;;25.50;14.77;;;;;;;4.21;65.30;98460.97;688251;28;886;-87
2023/03/09 00:29:51;;;;;;;26.20;14.75;;;;;;;4.24;64.60;98463.59;688073;28;1110;-87
2023/03/09 00:30:13;;;;;;;25.73;14.82;;;;;;;4.23;65.00;98458.44;688231;28;1013;-86
2023/03/09 00:30:34;;;;;;;23.50;14.27;;;;;;;4.20;65.15;98459.22;685375;28;1350;-87
2023/03/09 00:31:00;;;;;;;25.05;14.95;;;;;;;4.58;64.46;98468.44;680059;29;1915;-87
2023/03/09 00:31:21;;;;;;;25.60;15.20;;;;;;;4.65;64.06;98462.53;683001;29;1383;-87
2023/03/09 00:32:35;;;;;;;25.35;15.20;;;;;;;5.01;63.37;98469.88;685606;28;1234;-87
2023/03/09 00:32:56;;;;;;;27.80;15.90;;;;;;;4.63;63.47;98465.94;690683;28;1193;-87
2023/03/09 00:33:17;;;;;;;27.00;15.65;;;;;;;4.47;63.38;98463.13;686346;28;1295;-86
2023/03/09 00:33:37;;;;;;;25.13;15.25;;;;;;;4.45;64.20;98471.69;680126;29;1191;-87
2023/03/09 00:33:58;;;;;;;23.83;14.50;;;;;;;4.36;64.00;98462.94;685517;28;1311;-87
2023/03/09 00:34:20;;;;;;;24.23;14.88;;;;;;;4.43;64.41;98475.94;685590;28;1196;-87
2023/03/09 00:34:41;;;;;;;23.25;14.50;;;;;;;4.33;64.06;98468.06;685643;28;1016;-86
2023/03/09 00:35:02;;;;;;;23.63;14.50;;;;;;;4.28;64.57;98461.09;688238;28;1094;-87
2023/03/09 00:35:25;;;;;;;23.40;14.32;;;;;;;4.54;63.95;98469.22;690947;28;1269;-87
2023/03/09 00:35:45;;;;;;;25.27;14.95;;;;;;;4.43;64.40;98478.53;687959;28;1306;-86
2023/03/09 00:36:06;;;;;;;25.27;14.67;;;;;;;4.64;63.59;98458.22;690864;28;1375;-87
2023/03/09 00:36:27;;;;;;;24.77;14.40;;;;;;;4.50;63.65;98477.78;685577;28;852;-87
2023/03/09 00:36:51;;;;;;;23.90;14.85;;;;;;;4.47;64.11;98480.34;687992;28;1455;-87
2023/03/09 00:37:31;;;;;;;24.77;15.07;;;;;;;4.36;64.45;98478.44;685735;28;1181;-87
2023/03/09 00:37:52;;;;;;;23.20;14.13;;;;;;;4.31;64.68;98474.03;685333;28;1165;-87
2023/03/09 00:38:12;;;;;;;22.35;14.00;;;;;;;4.28;64.66;98463.69;685469;28;977;-86
2023/03/09 00:38:35;;;;;;;23.23;14.27;;;;;;;4.27;64.47;98462.78;688276;28;1035;-87
2023/03/09 00:39:05;;;;;;;23.75;14.98;;;;;;;4.25;64.78;98474.81;690864;28;1372;-86
2023/03/09 00:39:25;;;;;;;25.48;15.30;;;;;;;4.28;64.94;98477.44;682779;28;848;-86
2023/03/09 00:39:46;;;;;;;25.92;15.20;;;;;;;4.30;65.03;98472.31;685383;28;1265;-86
2023/03/09 00:40:09;;;;;;;26.05;15.73;;;;;;;4.26;64.57;98468.81;687993;28;1265;-87
2023/03/09 00:40:30;;;;;;;25.73;15.68;;;;;;;4.28;64.74;98467.13;682895;28;1311;-87
2023/03/09 00:40:51;;;;;;;26.67;16.00;;;;;;;4.28;64.79;98463.69;685290;28;1208;-86
2023/03/09 00:41:11;;;;;;;26.45;15.60;;;;;;;4.30;64.67;98465.41;682916;29;980;-86
2023/03/09 00:41:32;;;;;;;25.63;15.10;;;;;;;4.29;64.53;98463.69;685615;28;763;-86
2023/03/09 00:41:52;;;;;;;25.03;15.20;;;;;;;4.33;64.73;98470.66;690839;28;1167;-87
2023/03/09 00:42:14;;;;;;;25.10;15.35;;;;;;;4.34;64.76;98466.34;693612;28;961;-87
2023/03/09 00:42:34;;;;;;;25.58;15.57;;;;;;;4.33;64.54;98460.31;682928;28;1055;-87
2023/03/09 00:42:55;;;;;;;25.13;15.60;;;;;;;4.36;64.56;98470.69;682730;29;1209;-87
2023/03/09 00:43:16;;;;;;;25.67;15.63;;;;;;;4.35;64.25;98463.78;682923;28;1076;-87
2023/03/09 00:43:37;;;;;;;24.08;15.02;;;;;;;4.38;64.68;98469.00;685453;28;1122;-87
2023/03/09 00:43:59;;;;;;;24.38;14.82;;;;;;;4.47;64.53;98482.91;685512;28;1214;-87
2023/03/09 00:44:20;;;;;;;22.95;14.48;;;;;;;4.42;64.47;98474.22;682920;28;1090;-86
2023/03/09 00:44:40;;;;;;;24.95;14.80;;;;;;;4.48;64.24;98479.50;685547;28;1023;-87
2023/03/09 00:45:01;;;;;;;25.27;15.13;;;;;;;4.47;64.16;98477.75;686062;28;1302;-86
2023/03/09 00:45:23;;;;;;;25.02;15.35;;;;;;;4.43;64.37;98465.63;688143;28;1277;-87
2023/03/09 00:45:44;;;;;;;26.33;15.40;;;;;;;4.44;64.27;98465.66;688121;28;1453;-87
2023/03/09 00:46:04;;;;;;;25.90;15.07;;;;;;;4.40;64.22;98461.28;685481;28;1024;-87
2023/03/09 00:46:26;;;;;;;27.65;15.25;;;;;;;4.48;64.47;98467.44;682742;29;1286;-86
2023/03/09 00:46:47;;;;;;;26.60;15.18;;;;;;;4.48;64.19;98475.19;680010;29;1243;-87
2023/03/09 00:47:08;;;;;;;27.45;15.30;;;;;;;4.47;64.05;98477.75;682825;28;1177;-87
2023/03/09 00:47:28;;;;;;;26.80;14.80;;;;;;;4.48;64.49;98474.31;688296;28;1351;-87
2023/03/09 00:47:49;;;;;;;25.80;14.60;;;;;;;4.38;64.37;98458.66;690739;28;1206;-87
2023/03/09 00:48:10;;;;;;;24.23;14.35;;;;;;;4.50;64.27;98475.22;685522;28;1213;-87
2023/03/09 00:48:30;;;;;;;25.17;14.77;;;;;;;4.45;64.08;98471.69;685612;28;800;-87
2023/03/09 00:48:51;;;;;;;24.52;14.45;;;;;;;4.47;64.17;98472.59;685366;28;1181;-87
2023/03/09 00:50:05;;;;;;;25.10;14.60;;;;;;;4.46;64.40;98476.00;685606;28;1194;-87
2023/03/09 00:50:25;;;;;;;26.23;14.85;;;;;;;4.33;64.53;98465.47;680339;29;804;-87
2023/03/09 00:50:46;;;;;;;27.67;15.60;;;;;;;4.34;64.58;98472.38;682955;29;1104;-87
2023/03/09 00:51:08;;;;;;;27.08;15.60;;;;;;;4.34;64.61;98482.72;688323;28;1965;-87
2023/03/09 00:51:29;;;;;;;27.45;15.80;;;;;;;4.33;64.52;98485.25;686861;28;1396;-87
2023/03/09 00:51:50;;;;;;;26.48;15.38;;;;;;;4.34;64.55;98481.81;683900;29;1156;-87
2023/03/09 00:52:11;;;;;;;26.20;15.70;;;;;;;4.32;64.58;98478.34;684313;29;1273;-87
2023/03/09 00:52:31;;;;;;;24.15;15.73;;;;;;;4.29;64.94;98476.59;687455;28;1060;-87
2023/03/09 00:52:53;;;;;;;25.60;16.20;;;;;;;4.29;64.48;98473.16;690384;28;1403;-87
2023/03/09 00:53:13;;;;;;;25.25;15.55;;;;;;;4.32;64.58;98474.06;690404;28;1119;-87
2023/03/09 00:53:35;;;;;;;27.05;15.77;;;;;;;4.35;64.53;98474.13;685241;28;764;-87
2023/03/09 00:53:56;;;;;;;25.15;15.30;;;;;;;4.46;64.81;98491.47;685195;28;1199;-87
2023/03/09 00:54:17;;;;;;;25.42;15.93;;;;;;;4.35;64.61;98473.25;687708;28;1324;-87
2023/03/09 00:54:37;;;;;;;24.70;15.70;;;;;;;4.40;64.57;98491.41;687675;28;1047;-87
2023/03/09 00:54:58;;;;;;;25.13;15.50;;;;;;;4.37;64.69;98487.06;685024;28;1198;-87
2023/03/09 00:55:19;;;;;;;25.40;15.13;;;;;;;4.32;64.69;98479.25;690331;28;1359;-87
2023/03/09 00:55:40;;;;;;;25.73;15.30;;;;;;;4.36;64.88;98490.50;693104;28;1334;-87
2023/03/09 00:56:03;;;;;;;24.13;14.93;;;;;;;4.29;64.77;98484.34;690334;28;1177;-87
2023/03/09 00:56:26;;;;;;;22.80;15.02;;;;;;;4.32;65.01;98492.16;688306;28;958;-87
2023/03/09 00:56:47;;;;;;;23.63;15.35;;;;;;;4.32;64.78;98492.16;685613;29;1076;-87
2023/03/09 00:57:08;;;;;;;24.15;15.80;;;;;;;4.30;64.72;98475.75;685289;28;1178;-87
2023/03/09 00:57:29;;;;;;;23.70;15.50;;;;;;;4.28;64.66;98476.59;682746;29;843;-86
2023/03/09 00:57:50;;;;;;;24.92;15.18;;;;;;;4.30;64.56;98480.91;684212;28;1036;-86
2023/03/09 00:58:31;;;;;;;24.17;14.40;;;;;;;4.36;64.91;98493.94;686402;28;1131;-87
2023/03/09 00:58:52;;;;;;;24.20;14.85;;;;;;;4.27;65.16;98474.81;686499;28;945;-87
2023/03/09 00:59:13;;;;;;;24.95;15.05;;;;;;;4.27;64.98;98475.72;691472;28;1379;-87
2023/03/09 00:59:34;;;;;;;23.30;14.45;;;;;;;4.33;64.65;98483.56;686070;28;1186;-87
2023/03/09 00:59:55;;;;;;;23.15;14.20;;;;;;;4.34;64.80;98493.03;688822;28;1203;-87
2023/03/09 01:00:16;;;;;;;23.98;14.57;;;;;;;4.20;64.92;98479.00;691345;28;1333;-87
2023/03/09 01:00:37;;;;;;;24.85;14.60;;;;;;;4.28;64.93;98487.75;691457;28;1043;-87
2023/03/09 01:00:58;;;;;;;25.70;14.50;;;;;;;4.28;65.09;98492.06;691459;28;918;-87
2023/03/09 01:01:19;;;;;;;24.73;14.05;;;;;;;4.26;64.77;98489.47;686111;28;990;-87
2023/03/09 01:01:40;;;;;;;24.80;14.50;;;;;;;4.31;64.83;98490.41;683214;29;1092;-87
2023/03/09 01:02:01;;;;;;;25.50;14.90;;;;;;;4.29;64.92;98488.66;691425;28;1264;-87
2023/03/09 01:02:23;;;;;;;25.13;14.68;;;;;;;4.24;64.86;98491.16;688717;28;1217;-86
2023/03/09 01:02:43;;;;;;;23.88;14.20;;;;;;;4.23;64.87;98479.09;683044;28;1164;-87
2023/03/09 01:03:04;;;;;;;24.15;14.10;;;;;;;4.29;64.89;98499.81;688731;28;1388;-87
2023/03/09 01:03:25;;;;;;;23.75;14.70;;;;;;;4.27;65.05;98490.31;688618;28;918;-87
2023/03/09 01:03:46;;;;;;;24.63;15.10;;;;;;;4.25;65.15;98482.56;685811;28;1185;-86
2023/03/09 01:04:07;;;;;;;23.70;14.50;;;;;;;4.27;65.25;98486.03;686221;28;1314;-86
2023/03/09 01:04:27;;;;;;;23.98;14.18;;;;;;;4.33;64.72;98496.47;686331;28;760;-86
2023/03/09 01:04:49;;;;;;;24.77;14.33;;;;;;;4.31;65.00;98493.00;691662;28;1330;-87
2023/03/09 01:05:10;;;;;;;25.30;15.02;;;;;;;4.31;64.89;98490.41;691865;28;1436;-87
2023/03/09 01:05:30;;;;;;;25.45;15.00;;;;;;;4.21;64.87;98468.69;691725;28;1209;-87
2023/03/09 01:05:51;;;;;;;24.83;15.10;;;;;;;4.29;64.71;98484.34;688947;28;1374;-87
2023/03/09 01:06:14;;;;;;;23.20;14.63;;;;;;;4.28;64.92;98482.59;691552;28;972;-87
2023/03/09 01:06:34;;;;;;;24.05;14.57;;;;;;;4.27;64.90;98485.16;686110;28;1284;-87
2023/03/09 01:06:55;;;;;;;23.23;14.45;;;;;;;4.33;64.66;98491.31;683391;28;1269;-86
2023/03/09 01:07:17;;;;;;;23.35;14.73;;;;;;;4.30;64.93;98485.22;686054;28;1303;-88
2023/03/09 01:07:38;;;;;;;23.00;14.68;;;;;;;4.32;64.89;98487.00;688731;28;1055;-86
2023/03/09 01:07:59;;;;;;;23.05;14.30;;;;;;;4.28;64.64;98481.75;686143;28;1234;-87
2023/03/09 01:08:20;;;;;;;23.90;14.68;;;;;;;4.27;64.94;98483.44;688791;28;1279;-87
2023/03/09 01:08:41;;;;;;;24.60;14.90;;;;;;;4.29;64.66;98488.66;691479;28;1215;-87
2023/03/09 01:09:02;;;;;;;25.20;14.85;;;;;;;4.28;65.11;98479.16;688646;28;1184;-87
2023/03/09 01:09:23;;;;;;;24.20;14.82;;;;;;;4.32;64.88;98484.41;691517;28;953;-87
2023/03/09 01:09:44;;;;;;;22.63;14.63;;;;;;;4.29;64.71;98476.59;683549;28;1059;-87
2023/03/09 01:10:05;;;;;;;22.70;14.55;;;;;;;4.29;64.96;98481.75;686127;28;1218;-87
2023/03/09 01:10:25;;;;;;;23.05;14.20;;;;;;;4.33;64.77;98493.00;680734;29;1189;-87
2023/03/09 01:10:46;;;;;;;25.00;14.40;;;;;;;4.32;65.05;98484.41;688718;28;1309;-87
2023/03/09 01:11:09;;;;;;;24.90;14.30;;;;;;;4.28;65.00;98482.59;688583;28;1972;-87
2023/03/09 01:11:29;;;;;;;24.70;14.60;;;;;;;4.31;64.95;98492.13;688893;28;827;-87
2023/03/09 01:11:50;;;;;;;23.50;14.47;;;;;;;4.26;64.75;98479.13;688664;28;1015;-86
2023/03/09 01:12:11;;;;;;;23.00;14.10;;;;;;;4.32;64.68;98487.00;688844;28;1008;-87
2023/03/09 01:12:39;;;;;;;24.67;14.60;;;;;;;4.28;64.78;98487.75;686164;28;807;-87
2023/03/09 01:12:59;;;;;;;24.35;14.52;;;;;;;4.32;65.06;98494.72;680802;29;1080;-87
2023/03/09 01:13:20;;;;;;;24.83;14.55;;;;;;;4.27;64.87;98486.03;685983;28;1315;-87
2023/03/09 01:13:44;;;;;;;24.55;14.82;;;;;;;4.27;64.88;98486.03;686167;28;1055;-86
2023/03/09 01:14:05;;;;;;;25.23;15.07;;;;;;;4.28;65.05;98487.75;683268;28;1012;-87
2023/03/09 01:14:26;;;;;;;23.63;14.63;;;;;;;4.31;64.91;98493.00;683477;28;777;-87
2023/03/09 01:14:48;;;;;;;24.70;14.90;;;;;;;4.32;64.69;98492.16;685737;28;1416;-85
2023/03/09 01:15:10;;;;;;;24.33;14.88;;;;;;;4.26;65.10;98486.88;685952;28;1503;-86
2023/03/09 01:15:30;;;;;;;25.27;15.10;;;;;;;4.23;64.69;98481.69;688721;28;1278;-87
2023/03/09 01:15:53;;;;;;;25.27;15.05;;;;;;;4.27;64.66;98491.19;688641;28;1413;-87
2023/03/09 01:16:15;;;;;;;25.95;15.68;;;;;;;4.33;64.49;98500.75;691370;28;1305;-87
2023/03/09 01:16:35;;;;;;;25.63;15.80;;;;;;;4.27;64.97;98491.19;686047;28;1212;-86
2023/03/09 01:16:56;;;;;;;25.27;15.17;;;;;;;4.32;64.78;98505.06;688777;28;1003;-87
2023/03/09 01:17:17;;;;;;;24.37;14.83;;;;;;;4.25;64.93;98490.31;688717;28;1338;-87
2023/03/09 01:17:39;;;;;;;25.05;15.07;;;;;;;4.28;64.80;98502.41;691516;28;1131;-87
2023/03/09 01:17:59;;;;;;;25.20;15.25;;;;;;;4.20;65.22;98492.78;691422;28;1208;-87
2023/03/09 01:18:20;;;;;;;25.70;15.30;;;;;;;4.27;64.91;98496.34;688683;28;1188;-87
2023/03/09 01:18:41;;;;;;;25.33;15.00;;;;;;;4.24;64.88;98491.16;688686;28;1245;-87
2023/03/09 01:19:02;;;;;;;26.30;15.18;;;;;;;4.22;64.82;98487.66;688628;28;1209;-87
2023/03/09 01:19:24;;;;;;;27.15;15.57;;;;;;;4.17;65.16;98478.94;688834;28;1282;-87
2023/03/09 01:19:44;;;;;;;27.60;15.70;;;;;;;4.22;64.95;98483.38;683457;28;1368;-87
2023/03/09 01:20:06;;;;;;;26.95;15.30;;;;;;;4.36;64.66;98499.09;686009;28;1208;-87
2023/03/09 01:20:27;;;;;;;27.10;15.20;;;;;;;4.29;64.80;98484.34;691436;28;1424;-87
2023/03/09 01:20:47;;;;;;;26.50;15.43;;;;;;;4.30;64.65;98483.50;686022;28;1237;-87
2023/03/09 01:21:09;;;;;;;28.13;15.77;;;;;;;4.25;64.95;98482.56;686186;28;1297;-87
2023/03/09 01:21:30;;;;;;;28.95;16.02;;;;;;;4.28;64.62;98482.59;686300;28;784;-87
2023/03/09 01:21:50;;;;;;;29.48;16.00;;;;;;;4.31;64.59;98490.41;683388;28;1175;-86
2023/03/09 01:22:11;;;;;;;28.77;16.02;;;;;;;4.27;65.05;98486.03;691470;28;1147;-87
2023/03/09 01:22:32;;;;;;;27.20;15.60;;;;;;;4.33;65.00;98495.59;686131;28;1183;-87
2023/03/09 01:22:53;;;;;;;27.67;15.43;;;;;;;4.24;64.90;98480.84;691487;28;1270;-87
2023/03/09 01:23:13;;;;;;;27.07;15.30;;;;;;;4.23;64.66;98479.09;691380;28;1308;-87
2023/03/09 01:23:39;;;;;;;28.52;15.65;;;;;;;4.30;64.81;98480.06;691603;28;768;-87
2023/03/09 01:23:59;;;;;;;27.00;15.18;;;;;;;4.24;65.24;98478.25;688787;28;1490;-87
2023/03/09 01:24:22;;;;;;;27.02;14.90;;;;;;;4.27;64.88;98475.72;686269;28;1282;-86
2023/03/09 01:24:42;;;;;;;26.88;15.10;;;;;;;4.29;64.92;98484.34;688966;28;1257;-87
2023/03/09 01:25:03;;;;;;;27.10;15.47;;;;;;;4.23;64.62;98479.09;685958;28;1145;-87
2023/03/09 01:25:24;;;;;;;28.05;15.68;;;;;;;4.30;64.74;98491.22;683525;28;895;-87
2023/03/09 01:25:45;;;;;;;29.45;15.90;;;;;;;4.16;65.01;98475.50;683520;28;1133;-86
2023/03/09 01:26:07;;;;;;;30.55;15.88;;;;;;;4.25;65.16;98487.72;685971;28;1300;-87
2023/03/09 01:26:30;;;;;;;29.10;16.00;;;;;;;4.27;65.04;98486.03;683487;29;895;-87
2023/03/09 01:26:52;;;;;;;28.67;16.20;;;;;;;4.21;64.78;98475.56;685949;28;1293;-87
2023/03/09 01:27:14;;;;;;;28.70;16.35;;;;;;;4.28;64.85;98489.50;680769;29;1390;-87
2023/03/09 01:27:34;;;;;;;27.17;16.02;;;;;;;4.18;64.97;98470.34;683553;29;831;-87
2023/03/09 01:27:56;;;;;;;26.92;15.98;;;;;;;4.27;64.84;98486.03;686133;28;1271;-87
2023/03/09 01:28:16;;;;;;;27.70;16.08;;;;;;;4.29;64.88;98488.66;688941;28;1205;-86
2023/03/09 01:28:37;;;;;;;30.50;16.53;;;;;;;4.23;64.86;98479.09;691843;28;1028;-86
2023/03/09 01:28:58;;;;;;;29.60;16.80;;;;;;;4.18;65.00;98465.19;692006;28;1171;-86
2023/03/09 01:29:19;;;;;;;29.27;16.87;;;;;;;4.22;65.14;98474.75;684025;28;1174;-86
2023/03/09 01:29:39;;;;;;;26.20;16.27;;;;;;;4.20;64.83;98479.88;689611;28;1305;-85
2023/03/09 01:30:00;;;;;;;27.00;15.98;;;;;;;4.20;64.93;98472.13;692092;28;1149;-86
2023/03/09 01:30:21;;;;;;;28.90;16.10;;;;;;;4.21;64.89;98465.25;692188;28;950;-86
2023/03/09 01:30:41;;;;;;;29.33;16.20;;;;;;;4.20;64.99;98473.81;689377;28;1155;-87
2023/03/09 01:31:09;;;;;;;29.63;16.33;;;;;;;4.25;64.90;98479.97;692010;28;1895;-86
2023/03/09 01:31:29;;;;;;;28.15;16.30;;;;;;;4.29;65.04;98488.66;694791;28;1089;-86
2023/03/09 01:31:50;;;;;;;27.95;16.40;;;;;;;4.19;64.94;98472.97;694909;28;1067;-87
2023/03/09 01:32:11;;;;;;;27.75;16.27;;;;;;;4.27;65.31;98480.88;697496;28;1140;-86
2023/03/09 01:32:31;;;;;;;27.23;15.80;;;;;;;4.27;65.20;98478.28;695082;28;1176;-85
2023/03/09 01:32:53;;;;;;;27.53;15.90;;;;;;;4.16;65.12;98466.91;686738;28;1147;-87
2023/03/09 01:33:14;;;;;;;28.77;16.40;;;;;;;4.26;64.95;98473.97;686835;28;1285;-86
2023/03/09 01:33:35;;;;;;;29.52;16.75;;;;;;;4.16;65.09;98472.91;689638;28;1002;-86
2023/03/09 01:33:56;;;;;;;29.20;16.75;;;;;;;4.17;65.13;98471.22;692206;28;1159;-86
2023/03/09 01:35:48;;;;;;;30.35;17.23;;;;;;;4.13;65.16;98471.97;690726;28;1093;-86
2023/03/09 01:36:12;;;;;;;30.83;17.30;;;;;;;4.19;65.29;98472.09;692086;28;1134;-85
2023/03/09 01:36:33;;;;;;;31.92;17.63;;;;;;;4.32;65.28;98483.53;689598;28;867;-86
2023/03/09 01:36:54;;;;;;;30.00;17.60;;;;;;;4.32;64.73;98473.19;694366;28;1246;-86
2023/03/09 01:37:14;;;;;;;30.63;17.83;;;;;;;4.34;64.75;98477.53;689378;28;1040;-87
2023/03/09 01:37:36;;;;;;;29.80;17.40;;;;;;;4.38;64.80;98484.47;689172;28;1152;-86
2023/03/09 01:37:57;;;;;;;30.75;17.35;;;;;;;4.43;64.55;98484.59;684404;29;1240;-86
2023/03/09 01:38:17;;;;;;;28.08;16.55;;;;;;;4.34;64.42;98469.81;684219;29;1182;-87
2023/03/09 01:38:42;;;;;;;26.88;16.17;;;;;;;4.43;64.42;98486.28;691444;28;1094;-86
2023/03/09 01:39:03;;;;;;;27.00;16.23;;;;;;;4.36;64.39;98467.25;691654;28;1043;-87
2023/03/09 01:39:23;;;;;;;27.90;17.20;;;;;;;4.44;64.56;98483.72;689184;28;936;-87
2023/03/09 01:39:44;;;;;;;30.43;17.60;;;;;;;4.46;64.37;98478.56;686273;28;1113;-87
2023/03/09 01:40:15;;;;;;;30.42;17.65;;;;;;;4.40;64.65;98476.75;689129;28;1251;-86
2023/03/09 01:40:36;;;;;;;29.33;17.23;;;;;;;4.37;64.24;98477.59;691792;28;998;-86
2023/03/09 01:40:57;;;;;;;28.63;16.58;;;;;;;4.41;64.80;98487.97;691640;28;1150;-86
2023/03/09 01:41:21;;;;;;;28.60;16.65;;;;;;;4.36;64.46;98486.19;691979;28;1227;-86
2023/03/09 01:41:41;;;;;;;28.75;16.40;;;;;;;4.34;64.19;98477.53;691632;28;1318;-88
2023/03/09 01:42:02;;;;;;;29.75;17.17;;;;;;;4.36;64.29;98477.59;686054;29;1136;-86
2023/03/09 01:42:23;;;;;;;29.60;17.00;;;;;;;4.46;64.60;98486.31;691689;28;1131;-86
2023/03/09 01:42:43;;;;;;;31.63;18.27;;;;;;;4.48;64.44;98494.97;689043;28;1136;-86
2023/03/09 01:43:26;;;;;;;31.95;18.25;;;;;;;4.49;64.59;98491.56;688775;28;1147;-86
2023/03/09 01:43:50;;;;;;;30.25;17.73;;;;;;;4.49;64.03;98492.41;691505;28;1103;-86
2023/03/09 01:44:12;;;;;;;30.10;17.70;;;;;;;4.45;64.71;98500.09;694530;28;1278;-87
2023/03/09 01:44:33;;;;;;;28.98;17.50;;;;;;;4.45;64.22;98495.81;691789;28;966;-87
2023/03/09 01:45:18;;;;;;;28.90;17.35;;;;;;;4.44;64.31;98493.19;688863;28;1207;-87
2023/03/09 01:45:38;;;;;;;28.95;16.58;;;;;;;4.47;64.48;98494.09;688944;28;1210;-86
2023/03/09 01:46:21;;;;;;;29.02;16.80;;;;;;;4.45;64.51;98492.34;688898;28;1250;-86
2023/03/09 01:46:52;;;;;;;28.75;17.13;;;;;;;4.39;64.36;98495.69;688900;28;1425;-86
2023/03/09 01:47:12;;;;;;;29.63;17.58;;;;;;;4.40;64.61;98496.56;688875;28;1045;-86
2023/03/09 01:47:33;;;;;;;29.00;17.20;;;;;;;4.37;64.53;98498.25;694260;28;1316;-88
2023/03/09 01:47:58;;;;;;;29.65;17.33;;;;;;;4.32;64.86;98484.41;688179;28;928;-86
2023/03/09 01:48:18;;;;;;;28.80;17.05;;;;;;;4.35;64.81;98493.91;688553;28;1295;-86
2023/03/09 01:48:40;;;;;;;29.08;17.00;;;;;;;4.34;64.92;98489.56;685862;28;1296;-86